sensor_id;sensor_type;location;lat;lon;timestamp;pressure;altitude;pressure_sealevel;temperature;humidity
60240;BME280;46102;39.012;-7.064;2022-11-15T00:00:09;98667.66;;;15.14;100.00
60240;BME280;46102;39.012;-7.064;2022-11-15T00:02:29;98666.97;;;15.05;100.00
60240;BME280;46102;39.012;-7.064;2022-11-15T00:04:49;98665.00;;;15.06;100.00
60240;BME280;46102;39.012;-7.064;2022-11-15T00:07:08;98664.53;;;15.04;100.00
60240;BME280;46102;39.012;-7.064;2022-11-15T00:09:27;98664.66;;;15.07;100.00
60240;BME280;46102;39.012;-7.064;2022-11-15T00:11:47;98653.38;;;15.12;100.00
60240;BME280;46102;39.012;-7.064;2022-11-15T00:14:06;98656.63;;;15.02;100.00
60240;BME280;46102;39.012;-7.064;2022-11-15T00:16:25;98650.16;;;14.98;100.00
60240;BME280;46102;39.012;-7.064;2022-11-15T00:18:44;98646.59;;;14.97;100.00
60240;BME280;46102;39.012;-7.064;2022-11-15T00:21:06;98639.34;;;15.05;100.00
60240;BME280;46102;39.012;-7.064;2022-11-15T00:23:26;98647.97;;;15.04;100.00
60240;BME280;46102;39.012;-7.064;2022-11-15T00:25:45;98649.34;;;14.97;100.00
60240;BME280;46102;39.012;-7.064;2022-11-15T00:28:05;98653.25;;;14.96;100.00
60240;BME280;46102;39.012;-7.064;2022-11-15T00:30:24;98655.44;;;14.91;100.00
60240;BME280;46102;39.012;-7.064;2022-11-15T00:32:44;98651.53;;;14.80;100.00
60240;BME280;46102;39.012;-7.064;2022-11-15T00:35:03;98654.47;;;14.74;100.00
60240;BME280;46102;39.012;-7.064;2022-11-15T00:37:23;98647.13;;;14.78;100.00
60240;BME280;46102;39.012;-7.064;2022-11-15T00:39:43;98643.69;;;14.82;100.00
60240;BME280;46102;39.012;-7.064;2022-11-15T00:42:03;98644.50;;;14.94;100.00
60240;BME280;46102;39.012;-7.064;2022-11-15T00:44:22;98645.53;;;14.90;100.00
60240;BME280;46102;39.012;-7.064;2022-11-15T00:46:41;98642.31;;;14.88;100.00
60240;BME280;46102;39.012;-7.064;2022-11-15T00:49:00;98636.78;;;14.88;100.00
60240;BME280;46102;39.012;-7.064;2022-11-15T00:51:20;98634.38;;;14.86;100.00
60240;BME280;46102;39.012;-7.064;2022-11-15T00:53:39;98624.69;;;14.92;100.00
60240;BME280;46102;39.012;-7.064;2022-11-15T00:55:58;98626.44;;;14.97;100.00
60240;BME280;46102;39.012;-7.064;2022-11-15T00:58:18;98628.03;;;14.86;100.00
60240;BME280;46102;39.012;-7.064;2022-11-15T01:00:37;98631.16;;;14.84;100.00
60240;BME280;46102;39.012;-7.064;2022-11-15T01:02:57;98629.06;;;14.81;100.00
60240;BME280;46102;39.012;-7.064;2022-11-15T01:05:16;98626.31;;;14.81;100.00
60240;BME280;46102;39.012;-7.064;2022-11-15T01:07:35;98622.63;;;14.77;100.00
60240;BME280;46102;39.012;-7.064;2022-11-15T01:09:54;98626.88;;;14.74;100.00
60240;BME280;46102;39.012;-7.064;2022-11-15T01:12:14;98618.13;;;14.72;100.00
60240;BME280;46102;39.012;-7.064;2022-11-15T01:14:33;98619.50;;;14.78;100.00
60240;BME280;46102;39.012;-7.064;2022-11-15T01:16:52;98614.91;;;14.70;100.00
60240;BME280;46102;39.012;-7.064;2022-11-15T01:19:12;98617.31;;;14.72;100.00
60240;BME280;46102;39.012;-7.064;2022-11-15T01:21:31;98609.72;;;14.69;100.00
60240;BME280;46102;39.012;-7.064;2022-11-15T01:23:55;98609.84;;;14.72;100.00
60240;BME280;46102;39.012;-7.064;2022-11-15T01:26:15;98607.06;;;14.72;100.00
60240;BME280;46102;39.012;-7.064;2022-11-15T01:28:36;98607.66;;;14.78;100.00
60240;BME280;46102;39.012;-7.064;2022-11-15T01:30:58;98618.84;;;14.82;100.00
60240;BME280;46102;39.012;-7.064;2022-11-15T01:33:17;98591.91;;;14.78;100.00
60240;BME280;46102;39.012;-7.064;2022-11-15T01:35:40;98601.91;;;14.83;100.00
60240;BME280;46102;39.012;-7.064;2022-11-15T01:37:59;98599.03;;;14.92;100.00
60240;BME280;46102;39.012;-7.064;2022-11-15T01:40:19;98602.97;;;14.91;100.00
60240;BME280;46102;39.012;-7.064;2022-11-15T01:42:38;98598.13;;;14.88;100.00
60240;BME280;46102;39.012;-7.064;2022-11-15T01:44:57;98593.75;;;14.87;100.00
60240;BME280;46102;39.012;-7.064;2022-11-15T01:47:30;98592.25;;;14.89;100.00
60240;BME280;46102;39.012;-7.064;2022-11-15T01:52:22;98583.28;;;14.92;100.00
60240;BME280;46102;39.012;-7.064;2022-11-15T01:54:43;98582.38;;;14.88;100.00
60240;BME280;46102;39.012;-7.064;2022-11-15T01:57:07;98585.81;;;14.85;100.00
60240;BME280;46102;39.012;-7.064;2022-11-15T01:59:28;98585.00;;;14.85;100.00
60240;BME280;46102;39.012;-7.064;2022-11-15T02:01:47;98583.97;;;14.89;100.00
60240;BME280;46102;39.012;-7.064;2022-11-15T02:06:30;98582.94;;;14.94;100.00
60240;BME280;46102;39.012;-7.064;2022-11-15T02:08:49;98579.63;;;14.88;100.00
60240;BME280;46102;39.012;-7.064;2022-11-15T02:11:11;98581.78;;;14.95;100.00
60240;BME280;46102;39.012;-7.064;2022-11-15T02:13:30;98582.47;;;14.92;100.00
60240;BME280;46102;39.012;-7.064;2022-11-15T02:16:01;98575.78;;;14.81;100.00
60240;BME280;46102;39.012;-7.064;2022-11-15T02:18:33;98571.31;;;14.88;100.00
60240;BME280;46102;39.012;-7.064;2022-11-15T02:21:28;98572.69;;;14.94;100.00
60240;BME280;46102;39.012;-7.064;2022-11-15T02:34:32;98568.56;;;15.01;100.00
60240;BME280;46102;39.012;-7.064;2022-11-15T02:41:54;98577.06;;;14.95;100.00
60240;BME280;46102;39.012;-7.064;2022-11-15T02:44:39;98572.78;;;14.86;100.00
60240;BME280;46102;39.012;-7.064;2022-11-15T02:47:04;98568.09;;;14.86;100.00
60240;BME280;46102;39.012;-7.064;2022-11-15T02:49:34;98566.59;;;14.89;100.00
60240;BME280;46102;39.012;-7.064;2022-11-15T02:51:55;98568.19;;;14.90;100.00
60240;BME280;46102;39.012;-7.064;2022-11-15T02:54:19;98561.41;;;14.87;100.00
60240;BME280;46102;39.012;-7.064;2022-11-15T02:56:41;98562.22;;;14.88;100.00
60240;BME280;46102;39.012;-7.064;2022-11-15T02:59:33;98561.19;;;14.92;100.00
60240;BME280;46102;39.012;-7.064;2022-11-15T03:04:53;98547.59;;;14.87;100.00
60240;BME280;46102;39.012;-7.064;2022-11-15T03:10:00;98538.97;;;15.01;100.00
60240;BME280;46102;39.012;-7.064;2022-11-15T03:12:43;98540.94;;;15.01;100.00
60240;BME280;46102;39.012;-7.064;2022-11-15T03:15:16;98537.13;;;15.05;100.00
60240;BME280;46102;39.012;-7.064;2022-11-15T03:17:41;98538.97;;;15.13;100.00
60240;BME280;46102;39.012;-7.064;2022-11-15T03:20:05;98532.03;;;15.19;100.00
60240;BME280;46102;39.012;-7.064;2022-11-15T03:22:28;98529.75;;;15.09;100.00
60240;BME280;46102;39.012;-7.064;2022-11-15T03:24:52;98535.63;;;15.08;100.00
60240;BME280;46102;39.012;-7.064;2022-11-15T03:27:15;98535.16;;;15.06;100.00
60240;BME280;46102;39.012;-7.064;2022-11-15T03:29:39;98533.44;;;15.13;100.00
60240;BME280;46102;39.012;-7.064;2022-11-15T03:32:07;98527.25;;;15.04;100.00
60240;BME280;46102;39.012;-7.064;2022-11-15T03:34:34;98525.63;;;15.03;100.00
60240;BME280;46102;39.012;-7.064;2022-11-15T03:36:55;98532.06;;;15.07;100.00
60240;BME280;46102;39.012;-7.064;2022-11-15T03:39:15;98530.59;;;14.97;100.00
60240;BME280;46102;39.012;-7.064;2022-11-15T03:41:51;98532.63;;;15.01;100.00
60240;BME280;46102;39.012;-7.064;2022-11-15T03:49:20;98521.94;;;14.99;100.00
60240;BME280;46102;39.012;-7.064;2022-11-15T03:51:41;98513.44;;;15.04;100.00
60240;BME280;46102;39.012;-7.064;2022-11-15T03:54:03;98508.00;;;15.08;100.00
60240;BME280;46102;39.012;-7.064;2022-11-15T03:56:22;98494.88;;;15.05;100.00
60240;BME280;46102;39.012;-7.064;2022-11-15T03:58:42;98492.66;;;15.10;100.00
60240;BME280;46102;39.012;-7.064;2022-11-15T04:01:01;98504.22;;;15.00;100.00
60240;BME280;46102;39.012;-7.064;2022-11-15T04:03:20;98490.50;;;15.04;100.00
60240;BME280;46102;39.012;-7.064;2022-11-15T04:05:39;98488.22;;;14.93;100.00
60240;BME280;46102;39.012;-7.064;2022-11-15T04:07:59;98490.19;;;14.93;100.00
60240;BME280;46102;39.012;-7.064;2022-11-15T04:10:18;98488.69;;;14.95;100.00
60240;BME280;46102;39.012;-7.064;2022-11-15T04:12:42;98484.22;;;14.91;100.00
60240;BME280;46102;39.012;-7.064;2022-11-15T04:17:26;98482.13;;;14.88;100.00
60240;BME280;46102;39.012;-7.064;2022-11-15T04:19:46;98484.66;;;14.93;100.00
60240;BME280;46102;39.012;-7.064;2022-11-15T04:22:24;98476.50;;;14.84;100.00
60240;BME280;46102;39.012;-7.064;2022-11-15T04:25:01;98470.28;;;14.87;100.00
60240;BME280;46102;39.012;-7.064;2022-11-15T04:27:21;98479.94;;;14.93;100.00
60240;BME280;46102;39.012;-7.064;2022-11-15T04:29:40;98466.47;;;14.92;100.00
60240;BME280;46102;39.012;-7.064;2022-11-15T04:32:03;98474.50;;;14.97;100.00
60240;BME280;46102;39.012;-7.064;2022-11-15T04:34:23;98464.28;;;14.97;100.00
60240;BME280;46102;39.012;-7.064;2022-11-15T04:36:43;98465.75;;;14.95;100.00
60240;BME280;46102;39.012;-7.064;2022-11-15T04:39:21;98466.69;;;14.99;100.00
60240;BME280;46102;39.012;-7.064;2022-11-15T04:41:40;98474.63;;;15.01;100.00
60240;BME280;46102;39.012;-7.064;2022-11-15T04:43:59;98469.31;;;15.08;100.00
60240;BME280;46102;39.012;-7.064;2022-11-15T04:46:19;98468.41;;;15.04;100.00
60240;BME280;46102;39.012;-7.064;2022-11-15T04:48:37;98462.19;;;15.07;100.00
60240;BME280;46102;39.012;-7.064;2022-11-15T04:50:56;98468.84;;;15.06;100.00
60240;BME280;46102;39.012;-7.064;2022-11-15T04:53:16;98469.91;;;15.01;100.00
60240;BME280;46102;39.012;-7.064;2022-11-15T04:55:35;98472.41;;;15.06;100.00
60240;BME280;46102;39.012;-7.064;2022-11-15T04:57:59;98475.44;;;15.01;100.00
60240;BME280;46102;39.012;-7.064;2022-11-15T05:00:18;98478.78;;;14.94;100.00
60240;BME280;46102;39.012;-7.064;2022-11-15T05:02:37;98472.91;;;14.96;100.00
60240;BME280;46102;39.012;-7.064;2022-11-15T05:05:15;98458.09;;;14.88;100.00
60240;BME280;46102;39.012;-7.064;2022-11-15T05:07:34;98473.28;;;14.82;100.00
60240;BME280;46102;39.012;-7.064;2022-11-15T05:09:54;98483.63;;;14.85;100.00
60240;BME280;46102;39.012;-7.064;2022-11-15T05:12:13;98477.88;;;14.78;100.00
60240;BME280;46102;39.012;-7.064;2022-11-15T05:14:32;98481.44;;;14.78;100.00
60240;BME280;46102;39.012;-7.064;2022-11-15T05:16:52;98484.22;;;14.78;100.00
60240;BME280;46102;39.012;-7.064;2022-11-15T05:19:12;98478.22;;;14.76;100.00
60240;BME280;46102;39.012;-7.064;2022-11-15T05:21:31;98486.97;;;14.78;100.00
60240;BME280;46102;39.012;-7.064;2022-11-15T05:23:50;98483.75;;;14.76;100.00
60240;BME280;46102;39.012;-7.064;2022-11-15T05:26:10;98490.44;;;14.75;100.00
60240;BME280;46102;39.012;-7.064;2022-11-15T05:28:30;98490.56;;;14.67;100.00
60240;BME280;46102;39.012;-7.064;2022-11-15T05:30:50;98486.28;;;14.69;100.00
60240;BME280;46102;39.012;-7.064;2022-11-15T05:33:09;98488.34;;;14.72;100.00
60240;BME280;46102;39.012;-7.064;2022-11-15T05:35:33;98485.25;;;14.62;100.00
60240;BME280;46102;39.012;-7.064;2022-11-15T05:37:54;98484.00;;;14.71;100.00
60240;BME280;46102;39.012;-7.064;2022-11-15T05:40:14;98479.63;;;14.70;100.00
60240;BME280;46102;39.012;-7.064;2022-11-15T05:42:33;98476.38;;;14.81;100.00
60240;BME280;46102;39.012;-7.064;2022-11-15T05:44:52;98480.88;;;14.73;100.00
60240;BME280;46102;39.012;-7.064;2022-11-15T05:47:21;98486.16;;;14.66;100.00
60240;BME280;46102;39.012;-7.064;2022-11-15T05:49:44;98486.06;;;14.62;100.00
60240;BME280;46102;39.012;-7.064;2022-11-15T05:52:06;98480.22;;;14.64;100.00
60240;BME280;46102;39.012;-7.064;2022-11-15T05:54:26;98483.78;;;14.64;100.00
60240;BME280;46102;39.012;-7.064;2022-11-15T05:56:45;98481.09;;;14.68;100.00
60240;BME280;46102;39.012;-7.064;2022-11-15T05:59:05;98481.94;;;14.68;100.00
60240;BME280;46102;39.012;-7.064;2022-11-15T06:01:25;98480.88;;;14.73;100.00
60240;BME280;46102;39.012;-7.064;2022-11-15T06:03:45;98482.59;;;14.77;100.00
60240;BME280;46102;39.012;-7.064;2022-11-15T06:06:05;98482.59;;;14.77;100.00
60240;BME280;46102;39.012;-7.064;2022-11-15T06:08:24;98482.50;;;14.86;100.00
60240;BME280;46102;39.012;-7.064;2022-11-15T06:10:43;98485.34;;;14.90;100.00
60240;BME280;46102;39.012;-7.064;2022-11-15T06:13:04;98486.72;;;14.96;100.00
60240;BME280;46102;39.012;-7.064;2022-11-15T06:15:23;98490.50;;;15.04;100.00
60240;BME280;46102;39.012;-7.064;2022-11-15T06:17:43;98491.31;;;15.04;100.00
60240;BME280;46102;39.012;-7.064;2022-11-15T06:20:02;98494.09;;;15.04;100.00
60240;BME280;46102;39.012;-7.064;2022-11-15T06:22:22;98485.44;;;15.06;99.35
60240;BME280;46102;39.012;-7.064;2022-11-15T06:24:41;98483.94;;;15.08;99.03
60240;BME280;46102;39.012;-7.064;2022-11-15T06:27:02;98496.00;;;15.16;98.41
60240;BME280;46102;39.012;-7.064;2022-11-15T06:29:22;98488.19;;;15.06;98.96
60240;BME280;46102;39.012;-7.064;2022-11-15T06:31:41;98487.72;;;15.04;99.50
60240;BME280;46102;39.012;-7.064;2022-11-15T06:34:00;98479.69;;;14.98;99.80
60240;BME280;46102;39.012;-7.064;2022-11-15T06:36:19;98482.22;;;15.04;100.00
60240;BME280;46102;39.012;-7.064;2022-11-15T06:38:39;98490.28;;;14.96;100.00
60240;BME280;46102;39.012;-7.064;2022-11-15T06:41:03;98486.84;;;14.99;100.00
60240;BME280;46102;39.012;-7.064;2022-11-15T06:43:22;98490.88;;;15.02;100.00
60240;BME280;46102;39.012;-7.064;2022-11-15T06:45:42;98486.59;;;14.92;100.00
60240;BME280;46102;39.012;-7.064;2022-11-15T06:48:01;98493.03;;;14.96;99.40
60240;BME280;46102;39.012;-7.064;2022-11-15T06:50:21;98499.16;;;15.02;97.83
60240;BME280;46102;39.012;-7.064;2022-11-15T06:52:40;98489.25;;;15.01;97.18
60240;BME280;46102;39.012;-7.064;2022-11-15T06:54:59;98498.47;;;14.93;97.86
60240;BME280;46102;39.012;-7.064;2022-11-15T06:57:19;98496.16;;;14.95;98.12
60240;BME280;46102;39.012;-7.064;2022-11-15T06:59:38;98502.84;;;14.94;98.03
60240;BME280;46102;39.012;-7.064;2022-11-15T07:01:58;98510.78;;;14.95;98.30
60240;BME280;46102;39.012;-7.064;2022-11-15T07:04:17;98505.34;;;14.99;97.67
60240;BME280;46102;39.012;-7.064;2022-11-15T07:06:37;98506.97;;;14.88;98.15
60240;BME280;46102;39.012;-7.064;2022-11-15T07:08:56;98508.16;;;14.87;98.82
60240;BME280;46102;39.012;-7.064;2022-11-15T07:11:15;98509.97;;;14.83;98.18
60240;BME280;46102;39.012;-7.064;2022-11-15T07:13:35;98507.19;;;14.95;97.40
60240;BME280;46102;39.012;-7.064;2022-11-15T07:15:56;98517.81;;;14.93;97.20
60240;BME280;46102;39.012;-7.064;2022-11-15T07:18:15;98503.88;;;14.89;97.26
60240;BME280;46102;39.012;-7.064;2022-11-15T07:20:35;98508.47;;;14.85;97.92
60240;BME280;46102;39.012;-7.064;2022-11-15T07:23:01;98520.31;;;14.86;97.55
60240;BME280;46102;39.012;-7.064;2022-11-15T07:25:21;98513.22;;;14.85;96.92
60240;BME280;46102;39.012;-7.064;2022-11-15T07:27:40;98500.53;;;14.84;96.62
60240;BME280;46102;39.012;-7.064;2022-11-15T07:30:00;98509.75;;;14.88;95.92
60240;BME280;46102;39.012;-7.064;2022-11-15T07:32:19;98514.47;;;14.87;95.52
60240;BME280;46102;39.012;-7.064;2022-11-15T07:34:38;98516.19;;;14.92;94.92
60240;BME280;46102;39.012;-7.064;2022-11-15T07:36:58;98516.19;;;14.92;94.97
60240;BME280;46102;39.012;-7.064;2022-11-15T07:39:17;98516.88;;;14.89;94.90
60240;BME280;46102;39.012;-7.064;2022-11-15T07:41:37;98511.16;;;14.82;95.53
60240;BME280;46102;39.012;-7.064;2022-11-15T07:43:57;98520.00;;;14.87;95.01
60240;BME280;46102;39.012;-7.064;2022-11-15T07:46:16;98526.88;;;14.81;95.25
60240;BME280;46102;39.012;-7.064;2022-11-15T07:48:37;98524.72;;;14.87;95.29
60240;BME280;46102;39.012;-7.064;2022-11-15T07:50:58;98525.06;;;14.85;95.63
60240;BME280;46102;39.012;-7.064;2022-11-15T07:53:18;98522.88;;;14.78;96.81
60240;BME280;46102;39.012;-7.064;2022-11-15T07:55:40;98514.91;;;14.77;97.66
60240;BME280;46102;39.012;-7.064;2022-11-15T07:58:02;98508.50;;;14.73;98.05
60240;BME280;46102;39.012;-7.064;2022-11-15T08:00:22;98512.63;;;14.79;98.32
60240;BME280;46102;39.012;-7.064;2022-11-15T08:02:41;98509.41;;;14.77;98.68
60240;BME280;46102;39.012;-7.064;2022-11-15T08:05:01;98512.97;;;14.90;97.97
60240;BME280;46102;39.012;-7.064;2022-11-15T08:07:20;98512.16;;;14.89;98.13
60240;BME280;46102;39.012;-7.064;2022-11-15T08:09:39;98515.47;;;14.95;97.42
60240;BME280;46102;39.012;-7.064;2022-11-15T08:11:58;98527.66;;;15.06;95.95
60240;BME280;46102;39.012;-7.064;2022-11-15T08:14:17;98532.53;;;15.09;95.69
60240;BME280;46102;39.012;-7.064;2022-11-15T08:16:36;98529.16;;;15.04;96.20
60240;BME280;46102;39.012;-7.064;2022-11-15T08:18:56;98530.56;;;15.10;95.43
60240;BME280;46102;39.012;-7.064;2022-11-15T08:21:19;98516.63;;;15.06;96.06
60240;BME280;46102;39.012;-7.064;2022-11-15T08:23:38;98514.44;;;15.12;96.40
60240;BME280;46102;39.012;-7.064;2022-11-15T08:26:02;98513.25;;;15.25;96.15
60240;BME280;46102;39.012;-7.064;2022-11-15T08:28:21;98506.81;;;15.33;94.97
60240;BME280;46102;39.012;-7.064;2022-11-15T08:30:42;98507.81;;;15.41;94.56
60240;BME280;46102;39.012;-7.064;2022-11-15T08:33:01;98512.16;;;15.42;94.70
60240;BME280;46102;39.012;-7.064;2022-11-15T08:35:22;98507.09;;;15.44;93.94
60240;BME280;46102;39.012;-7.064;2022-11-15T08:37:42;98518.84;;;15.41;94.13
60240;BME280;46102;39.012;-7.064;2022-11-15T08:40:02;98517.22;;;15.52;93.67
60240;BME280;46102;39.012;-7.064;2022-11-15T08:42:21;98517.41;;;15.59;93.90
60240;BME280;46102;39.012;-7.064;2022-11-15T08:44:41;98509.44;;;15.70;92.71
60240;BME280;46102;39.012;-7.064;2022-11-15T08:47:01;98514.16;;;15.70;93.17
60240;BME280;46102;39.012;-7.064;2022-11-15T08:49:20;98514.53;;;15.96;92.19
60240;BME280;46102;39.012;-7.064;2022-11-15T08:51:40;98522.88;;;16.28;89.64
60240;BME280;46102;39.012;-7.064;2022-11-15T08:54:00;98524.03;;;16.59;87.27
60240;BME280;46102;39.012;-7.064;2022-11-15T08:56:19;98519.50;;;16.82;85.57
60240;BME280;46102;39.012;-7.064;2022-11-15T08:58:39;98530.06;;;17.12;84.14
60240;BME280;46102;39.012;-7.064;2022-11-15T09:00:58;98540.19;;;17.40;82.27
60240;BME280;46102;39.012;-7.064;2022-11-15T09:03:18;98532.63;;;17.56;81.12
60240;BME280;46102;39.012;-7.064;2022-11-15T09:05:37;98536.78;;;17.66;79.91
60240;BME280;46102;39.012;-7.064;2022-11-15T09:07:56;98537.31;;;17.52;79.91
60240;BME280;46102;39.012;-7.064;2022-11-15T09:10:16;98541.06;;;17.44;79.75
60240;BME280;46102;39.012;-7.064;2022-11-15T09:12:35;98547.94;;;17.50;80.00
60240;BME280;46102;39.012;-7.064;2022-11-15T09:14:55;98562.25;;;17.72;77.86
60240;BME280;46102;39.012;-7.064;2022-11-15T09:17:14;98551.50;;;17.86;77.74
60240;BME280;46102;39.012;-7.064;2022-11-15T09:19:34;98542.28;;;18.01;76.28
60240;BME280;46102;39.012;-7.064;2022-11-15T09:21:53;98536.75;;;18.01;75.16
60240;BME280;46102;39.012;-7.064;2022-11-15T09:24:13;98524.94;;;18.08;74.67
60240;BME280;46102;39.012;-7.064;2022-11-15T09:26:32;98517.78;;;18.26;73.85
60240;BME280;46102;39.012;-7.064;2022-11-15T09:28:52;98520.31;;;18.35;71.81
60240;BME280;46102;39.012;-7.064;2022-11-15T09:31:11;98515.66;;;18.43;70.83
60240;BME280;46102;39.012;-7.064;2022-11-15T09:33:31;98508.56;;;18.45;70.39
60240;BME280;46102;39.012;-7.064;2022-11-15T09:35:50;98498.41;;;18.53;70.84
60240;BME280;46102;39.012;-7.064;2022-11-15T09:38:09;98499.66;;;18.59;69.88
60240;BME280;46102;39.012;-7.064;2022-11-15T09:40:31;98491.44;;;18.66;70.25
60240;BME280;46102;39.012;-7.064;2022-11-15T09:51:14;98500.75;;;19.01;69.16
60240;BME280;46102;39.012;-7.064;2022-11-15T09:55:40;98510.09;;;19.16;68.54
60240;BME280;46102;39.012;-7.064;2022-11-15T09:57:54;98492.47;;;19.34;66.61
60240;BME280;46102;39.012;-7.064;2022-11-15T10:00:20;98501.44;;;19.51;66.32
60240;BME280;46102;39.012;-7.064;2022-11-15T10:04:38;98510.09;;;19.72;65.13
60240;BME280;46102;39.012;-7.064;2022-11-15T10:06:52;98501.91;;;19.90;64.88
60240;BME280;46102;39.012;-7.064;2022-11-15T10:08:56;98512.19;;;19.83;64.38
60240;BME280;46102;39.012;-7.064;2022-11-15T10:11:00;98501.59;;;19.65;65.88
60240;BME280;46102;39.012;-7.064;2022-11-15T10:13:03;98502.13;;;19.44;64.71
60240;BME280;46102;39.012;-7.064;2022-11-15T10:15:09;98513.81;;;19.27;65.27
60240;BME280;46102;39.012;-7.064;2022-11-15T10:19:36;98511.59;;;19.09;66.39
60240;BME280;46102;39.012;-7.064;2022-11-15T10:23:53;98513.56;;;19.09;66.23
60240;BME280;46102;39.012;-7.064;2022-11-15T10:25:57;98505.38;;;19.20;66.40
60240;BME280;46102;39.012;-7.064;2022-11-15T10:27:59;98490.41;;;19.28;66.46
60240;BME280;46102;39.012;-7.064;2022-11-15T10:30:02;98491.56;;;19.27;66.00
60240;BME280;46102;39.012;-7.064;2022-11-15T10:32:04;98490.13;;;19.37;65.29
60240;BME280;46102;39.012;-7.064;2022-11-15T10:36:18;98479.47;;;19.42;64.96
60240;BME280;46102;39.012;-7.064;2022-11-15T10:38:19;98471.47;;;19.37;65.55
60240;BME280;46102;39.012;-7.064;2022-11-15T10:40:22;98466.84;;;19.52;65.96
60240;BME280;46102;39.012;-7.064;2022-11-15T10:42:28;98462.47;;;19.51;66.59
60240;BME280;46102;39.012;-7.064;2022-11-15T10:44:29;98458.63;;;19.59;66.56
60240;BME280;46102;39.012;-7.064;2022-11-15T10:46:30;98467.91;;;19.70;65.75
60240;BME280;46102;39.012;-7.064;2022-11-15T10:48:31;98463.16;;;19.74;65.14
60240;BME280;46102;39.012;-7.064;2022-11-15T10:50:32;98465.06;;;19.67;65.62
60240;BME280;46102;39.012;-7.064;2022-11-15T10:52:35;98465.97;;;19.44;66.12
60240;BME280;46102;39.012;-7.064;2022-11-15T10:56:42;98460.53;;;19.21;67.52
60240;BME280;46102;39.012;-7.064;2022-11-15T10:58:49;98453.25;;;19.43;67.47
60240;BME280;46102;39.012;-7.064;2022-11-15T11:00:52;98438.91;;;19.71;66.60
60240;BME280;46102;39.012;-7.064;2022-11-15T11:04:57;98438.22;;;20.26;64.71
60240;BME280;46102;39.012;-7.064;2022-11-15T11:06:59;98456.44;;;20.57;62.49
60240;BME280;46102;39.012;-7.064;2022-11-15T11:09:05;98446.19;;;20.72;62.33
60240;BME280;46102;39.012;-7.064;2022-11-15T11:11:06;98445.78;;;20.70;62.69
60240;BME280;46102;39.012;-7.064;2022-11-15T11:13:21;98455.66;;;20.61;62.63
60240;BME280;46102;39.012;-7.064;2022-11-15T11:15:26;98434.28;;;20.31;64.03
60240;BME280;46102;39.012;-7.064;2022-11-15T11:20:08;98451.78;;;20.28;64.18
60240;BME280;46102;39.012;-7.064;2022-11-15T11:31:59;98454.19;;;19.24;68.22
60240;BME280;46102;39.012;-7.064;2022-11-15T11:39:00;98456.75;;;19.06;69.56
60240;BME280;46102;39.012;-7.064;2022-11-15T11:48:12;98431.44;;;18.85;68.35
60240;BME280;46102;39.012;-7.064;2022-11-15T11:50:17;98430.06;;;18.75;68.22
60240;BME280;46102;39.012;-7.064;2022-11-15T11:54:29;98404.53;;;18.66;68.30
60240;BME280;46102;39.012;-7.064;2022-11-15T11:56:36;98404.91;;;18.64;69.81
60240;BME280;46102;39.012;-7.064;2022-11-15T11:58:45;98386.19;;;18.61;69.85
60240;BME280;46102;39.012;-7.064;2022-11-15T12:00:51;98376.19;;;18.53;70.76
60240;BME280;46102;39.012;-7.064;2022-11-15T12:03:11;98390.06;;;18.53;70.07
60240;BME280;46102;39.012;-7.064;2022-11-15T12:05:28;98384.38;;;18.46;70.16
60240;BME280;46102;39.012;-7.064;2022-11-15T12:07:33;98384.25;;;18.35;70.71
60240;BME280;46102;39.012;-7.064;2022-11-15T12:09:42;98374.63;;;18.29;71.75
60240;BME280;46102;39.012;-7.064;2022-11-15T12:14:01;98383.13;;;18.17;72.24
60240;BME280;46102;39.012;-7.064;2022-11-15T12:16:26;98383.59;;;17.96;73.20
60240;BME280;46102;39.012;-7.064;2022-11-15T12:18:28;98376.75;;;17.89;74.17
60240;BME280;46102;39.012;-7.064;2022-11-15T12:20:37;98384.03;;;17.78;75.19
60240;BME280;46102;39.012;-7.064;2022-11-15T12:22:43;98378.00;;;17.73;75.89
60240;BME280;46102;39.012;-7.064;2022-11-15T12:24:54;98371.09;;;17.63;76.54
60240;BME280;46102;39.012;-7.064;2022-11-15T12:27:05;98372.63;;;17.60;77.83
60240;BME280;46102;39.012;-7.064;2022-11-15T12:29:22;98367.03;;;17.57;78.37
60240;BME280;46102;39.012;-7.064;2022-11-15T12:31:38;98371.63;;;17.49;78.91
60240;BME280;46102;39.012;-7.064;2022-11-15T12:33:43;98355.59;;;17.39;80.25
60240;BME280;46102;39.012;-7.064;2022-11-15T12:35:58;98362.31;;;17.38;80.64
60240;BME280;46102;39.012;-7.064;2022-11-15T12:38:00;98361.59;;;17.21;81.77
60240;BME280;46102;39.012;-7.064;2022-11-15T12:40:15;98361.69;;;17.25;82.04
60240;BME280;46102;39.012;-7.064;2022-11-15T12:55:31;98337.41;;;17.61;79.71
60240;BME280;46102;39.012;-7.064;2022-11-15T12:57:34;98321.59;;;17.65;79.57
60240;BME280;46102;39.012;-7.064;2022-11-15T13:01:57;98315.22;;;17.84;78.74
60240;BME280;46102;39.012;-7.064;2022-11-15T13:06:37;98309.56;;;17.80;79.06
60240;BME280;46102;39.012;-7.064;2022-11-15T13:08:44;98319.28;;;17.90;77.52
60240;BME280;46102;39.012;-7.064;2022-11-15T13:10:47;98286.81;;;17.94;77.44
60240;BME280;46102;39.012;-7.064;2022-11-15T13:12:50;98312.22;;;17.96;77.66
60240;BME280;46102;39.012;-7.064;2022-11-15T13:14:53;98301.13;;;17.96;77.17
60240;BME280;46102;39.012;-7.064;2022-11-15T13:16:59;98293.19;;;17.95;77.04
60240;BME280;46102;39.012;-7.064;2022-11-15T13:19:01;98290.47;;;17.98;77.34
60240;BME280;46102;39.012;-7.064;2022-11-15T13:21:04;98287.22;;;17.93;77.92
60240;BME280;46102;39.012;-7.064;2022-11-15T13:23:25;98271.69;;;17.88;78.60
60240;BME280;46102;39.012;-7.064;2022-11-15T13:27:41;98262.19;;;17.89;79.40
60240;BME280;46102;39.012;-7.064;2022-11-15T13:29:43;98260.53;;;17.84;79.47
60240;BME280;46102;39.012;-7.064;2022-11-15T13:31:44;98263.31;;;17.84;80.06
60240;BME280;46102;39.012;-7.064;2022-11-15T13:33:46;98265.56;;;17.79;80.38
60240;BME280;46102;39.012;-7.064;2022-11-15T13:35:54;98262.81;;;17.79;80.80
60240;BME280;46102;39.012;-7.064;2022-11-15T13:38:03;98252.56;;;17.83;81.22
60240;BME280;46102;39.012;-7.064;2022-11-15T13:42:20;98252.38;;;17.95;80.02